createdAt,value
2022-11-13T00:00:15.624Z,28.03
2022-11-13T00:03:01.109Z,26.67
2022-11-13T00:05:46.798Z,27.53
2022-11-13T00:08:32.614Z,27.17
2022-11-13T00:11:19.697Z,27.10
2022-11-13T00:14:05.350Z,26.63
2022-11-13T00:16:50.771Z,27.30
2022-11-13T00:19:36.308Z,26.23
2022-11-13T00:22:21.980Z,25.73
2022-11-13T00:25:07.329Z,25.70
2022-11-13T00:27:52.743Z,25.83
2022-11-13T00:30:38.142Z,26.10
2022-11-13T00:33:45.443Z,24.73
2022-11-13T00:36:29.358Z,24.77
2022-11-13T00:39:14.627Z,25.43
2022-11-13T00:42:00.796Z,24.13
2022-11-13T00:44:46.011Z,25.70
2022-11-13T00:47:33.103Z,25.03
2022-11-13T00:50:18.605Z,23.90
2022-11-13T00:53:03.785Z,24.37
2022-11-13T00:55:49.156Z,24.00
2022-11-13T00:58:34.714Z,23.70
2022-11-13T01:01:20.430Z,25.10
2022-11-13T01:04:05.841Z,24.47
2022-11-13T01:06:51.086Z,25.87
2022-11-13T01:09:36.522Z,25.33
2022-11-13T01:12:21.990Z,25.97
2022-11-13T01:15:07.581Z,25.27
2022-11-13T01:17:55.171Z,26.10
2022-11-13T01:20:40.634Z,25.67
2022-11-13T01:23:26.313Z,25.33
2022-11-13T01:26:16.746Z,26.67
2022-11-13T01:29:02.265Z,25.47
2022-11-13T01:31:47.539Z,24.17
2022-11-13T01:34:33.367Z,24.50
2022-11-13T01:37:18.554Z,25.17
2022-11-13T01:40:04.336Z,26.73
2022-11-13T01:42:49.767Z,25.77
2022-11-13T01:45:53.904Z,25.93
2022-11-13T01:48:42.069Z,26.57
2022-11-13T01:51:36.277Z,23.73
2022-11-13T01:54:27.561Z,24.80
2022-11-13T01:57:14.891Z,24.50
2022-11-13T02:00:02.943Z,23.53
2022-11-13T02:02:48.252Z,22.77
2022-11-13T02:05:34.245Z,24.97
2022-11-13T02:08:19.717Z,26.73
2022-11-13T02:11:04.979Z,27.20
2022-11-13T02:13:50.884Z,24.63
2022-11-13T02:16:37.186Z,25.17
2022-11-13T02:19:34.915Z,25.10
2022-11-13T02:22:36.333Z,26.70
2022-11-13T02:25:22.118Z,25.83
2022-11-13T02:28:07.694Z,24.90
2022-11-13T02:30:52.938Z,25.50
2022-11-13T02:33:38.433Z,25.73
2022-11-13T02:36:25.638Z,24.50
2022-11-13T02:39:12.664Z,25.50
2022-11-13T02:41:58.015Z,23.97
2022-11-13T02:44:43.510Z,24.57
2022-11-13T02:47:29.212Z,23.77
2022-11-13T02:50:14.921Z,24.40
2022-11-13T02:53:00.291Z,24.23
2022-11-13T02:55:45.812Z,26.20
2022-11-13T02:58:32.020Z,26.13
2022-11-13T03:01:17.919Z,27.40
2022-11-13T03:04:03.212Z,26.53
2022-11-13T03:06:48.741Z,25.53
2022-11-13T03:09:34.044Z,27.47
2022-11-13T03:12:19.555Z,26.20
2022-11-13T03:15:06.002Z,23.43
2022-11-13T03:17:51.533Z,24.33
2022-11-13T03:20:37.518Z,26.50
2022-11-13T03:23:22.977Z,26.63
2022-11-13T03:26:10.374Z,26.43
2022-11-13T03:28:56.039Z,26.30
2022-11-13T03:31:41.554Z,26.77
2022-11-13T03:34:27.035Z,27.47
2022-11-13T03:37:12.389Z,25.47
2022-11-13T03:39:57.624Z,25.13
2022-11-13T03:42:43.117Z,27.63
2022-11-13T03:45:28.530Z,24.60
2022-11-13T03:48:14.578Z,23.83
2022-11-13T03:50:59.991Z,23.77
2022-11-13T03:53:45.735Z,22.87
2022-11-13T03:56:31.219Z,18.37
2022-11-13T03:59:16.382Z,19.67
2022-11-13T04:02:02.162Z,22.00
2022-11-13T04:04:47.465Z,23.93
2022-11-13T04:07:32.975Z,21.13
2022-11-13T04:10:18.738Z,23.13
2022-11-13T04:13:04.056Z,23.07
2022-11-13T04:15:49.669Z,24.13
2022-11-13T04:18:35.537Z,23.80
2022-11-13T04:21:20.717Z,23.37
2022-11-13T04:24:06.460Z,22.13
2022-11-13T04:26:51.925Z,22.40
2022-11-13T04:29:37.548Z,21.67
2022-11-13T04:32:23.120Z,22.93
2022-11-13T04:35:09.217Z,21.30
2022-11-13T04:37:55.050Z,20.37
2022-11-13T04:40:40.896Z,20.60
2022-11-13T04:43:26.309Z,18.90
2022-11-13T04:46:11.858Z,17.40
2022-11-13T04:48:57.355Z,18.53
2022-11-13T04:51:42.806Z,18.07
2022-11-13T04:54:29.076Z,17.50
2022-11-13T04:57:14.806Z,17.90
2022-11-13T05:00:00.238Z,19.10
2022-11-13T05:02:45.805Z,18.23
2022-11-13T05:05:31.432Z,19.33
2022-11-13T05:08:16.927Z,19.80
2022-11-13T05:11:02.933Z,19.67
2022-11-13T05:13:48.342Z,20.83
2022-11-13T05:16:35.182Z,19.83
2022-11-13T05:19:20.811Z,20.20
2022-11-13T05:22:06.534Z,21.40
2022-11-13T05:24:52.082Z,21.60
2022-11-13T05:27:37.536Z,22.47
2022-11-13T05:30:23.137Z,21.77
2022-11-13T05:33:09.171Z,22.43
2022-11-13T05:35:54.394Z,22.03
2022-11-13T05:38:39.944Z,23.13
2022-11-13T05:41:25.961Z,24.17
2022-11-13T05:44:11.283Z,25.30
2022-11-13T05:46:56.878Z,25.73
2022-11-13T05:49:42.378Z,26.00
2022-11-13T05:52:27.623Z,26.47
2022-11-13T05:55:12.997Z,27.00
2022-11-13T05:57:58.890Z,27.90
2022-11-13T06:00:44.160Z,27.07
2022-11-13T06:03:29.652Z,27.10
2022-11-13T06:06:16.463Z,28.23
2022-11-13T06:09:02.631Z,29.23
2022-11-13T06:11:48.877Z,26.50
2022-11-13T06:14:34.475Z,27.80
2022-11-13T06:17:20.025Z,28.97
2022-11-13T06:20:05.573Z,28.00
2022-11-13T06:22:50.945Z,28.43
2022-11-13T06:25:36.226Z,27.13
2022-11-13T06:28:21.844Z,29.53
2022-11-13T06:31:08.623Z,28.90
2022-11-13T06:33:54.250Z,28.43
2022-11-13T06:36:39.661Z,29.73
2022-11-13T06:39:25.129Z,26.10
2022-11-13T06:42:10.462Z,26.63
2022-11-13T06:44:55.657Z,27.83
2022-11-13T06:47:40.862Z,25.50
2022-11-13T06:50:26.403Z,26.07
2022-11-13T06:53:11.690Z,26.43
2022-11-13T06:55:57.522Z,24.47
2022-11-13T06:58:44.023Z,22.67
2022-11-13T07:01:29.654Z,23.43
2022-11-13T07:04:14.975Z,23.07
2022-11-13T07:07:00.557Z,23.47
2022-11-13T07:09:46.115Z,22.83
2022-11-13T07:12:31.461Z,22.20
2022-11-13T07:15:17.231Z,22.97
2022-11-13T07:18:03.603Z,22.83
2022-11-13T07:20:48.967Z,22.73
2022-11-13T07:23:35.668Z,22.37
2022-11-13T07:26:20.944Z,25.37
2022-11-13T07:29:06.250Z,22.77
2022-11-13T07:31:51.624Z,22.37
2022-11-13T07:34:37.067Z,22.50
2022-11-13T07:37:22.790Z,23.40
2022-11-13T07:40:08.679Z,24.40
2022-11-13T07:42:58.870Z,21.47
2022-11-13T07:45:44.415Z,21.03
2022-11-13T07:48:30.507Z,24.10
2022-11-13T07:51:16.093Z,24.43
2022-11-13T07:54:01.528Z,25.20
2022-11-13T07:56:47.534Z,22.43
2022-11-13T07:59:32.966Z,23.37
2022-11-13T08:02:21.175Z,23.63
2022-11-13T08:05:10.987Z,23.40
2022-11-13T08:07:56.243Z,27.20
2022-11-13T08:10:41.738Z,25.00
2022-11-13T08:13:26.941Z,24.57
2022-11-13T08:16:12.430Z,23.13
2022-11-13T08:18:57.726Z,24.27
2022-11-13T08:21:43.371Z,22.03
2022-11-13T08:24:28.725Z,22.60
2022-11-13T08:27:14.386Z,23.10
2022-11-13T08:29:59.949Z,23.23
2022-11-13T08:32:45.618Z,25.50
2022-11-13T08:35:31.510Z,24.33
2022-11-13T08:38:17.105Z,23.10
2022-11-13T08:41:08.690Z,23.87
2022-11-13T08:43:55.003Z,23.30
2022-11-13T08:46:40.742Z,24.73
2022-11-13T08:49:26.233Z,24.93
2022-11-13T08:52:11.665Z,25.47
2022-11-13T08:54:57.001Z,24.70
2022-11-13T08:57:42.174Z,25.33
2022-11-13T09:00:28.901Z,25.77
2022-11-13T09:03:14.267Z,25.27
2022-11-13T09:05:59.742Z,26.73
2022-11-13T09:08:45.279Z,32.30
2022-11-13T09:11:30.655Z,30.77
2022-11-13T09:14:16.315Z,27.90
2022-11-13T09:17:02.110Z,30.40
2022-11-13T09:19:47.732Z,29.53
2022-11-13T09:22:34.135Z,29.43
2022-11-13T09:25:20.102Z,34.67
2022-11-13T09:28:06.156Z,29.17
2022-11-13T09:30:51.706Z,29.80
2022-11-13T09:33:36.926Z,31.37
2022-11-13T09:36:22.459Z,37.60
2022-11-13T09:39:08.169Z,26.83
2022-11-13T09:41:59.239Z,26.97
2022-11-13T09:44:50.466Z,28.70
2022-11-13T09:47:37.782Z,28.80
2022-11-13T09:50:24.879Z,29.73
2022-11-13T09:53:12.007Z,39.10
2022-11-13T09:56:01.892Z,32.10
2022-11-13T09:58:47.328Z,28.60
2022-11-13T10:01:51.559Z,27.50
2022-11-13T10:04:36.930Z,25.87
2022-11-13T10:07:45.228Z,28.27
2022-11-13T10:10:48.271Z,28.53
2022-11-13T10:13:40.481Z,27.27
2022-11-13T10:16:48.308Z,27.57
2022-11-13T10:19:33.482Z,25.37
2022-11-13T10:22:37.057Z,27.50
2022-11-13T10:25:23.989Z,28.63
2022-11-13T10:28:43.168Z,27.77
2022-11-13T10:31:18.252Z,29.70
2022-11-13T10:34:03.945Z,27.23
2022-11-13T10:36:56.114Z,26.90
2022-11-13T10:39:42.554Z,29.07
2022-11-13T10:42:29.417Z,31.00
2022-11-13T10:45:16.762Z,28.10
2022-11-13T10:48:04.766Z,30.63
2022-11-13T10:50:54.319Z,31.13
2022-11-13T10:53:41.437Z,27.53
2022-11-13T10:56:31.821Z,25.67
2022-11-13T10:59:18.387Z,26.57
2022-11-13T11:02:09.861Z,28.90
2022-11-13T11:05:05.655Z,27.03
2022-11-13T11:07:51.289Z,26.83
2022-11-13T11:10:57.089Z,23.53
2022-11-13T11:13:42.368Z,26.43
2022-11-13T11:16:27.890Z,22.33
2022-11-13T11:19:14.358Z,23.93
2022-11-13T11:22:09.834Z,24.80
2022-11-13T11:24:57.713Z,25.00
2022-11-13T11:27:43.229Z,22.77
2022-11-13T11:30:32.007Z,23.83
2022-11-13T11:33:23.615Z,26.07
2022-11-13T11:36:12.138Z,22.73
2022-11-13T11:39:06.640Z,26.00
2022-11-13T11:41:57.923Z,24.10
2022-11-13T11:44:43.411Z,24.77
2022-11-13T11:47:29.199Z,22.90
2022-11-13T11:50:15.674Z,22.83
2022-11-13T11:53:06.566Z,23.60
2022-11-13T11:56:04.606Z,23.50
2022-11-13T11:59:08.915Z,22.93
2022-11-13T12:02:06.249Z,23.10
2022-11-13T12:05:10.387Z,22.30
2022-11-13T12:07:57.063Z,23.50
2022-11-13T12:10:48.585Z,23.63
2022-11-13T12:13:36.902Z,22.53
2022-11-13T12:16:25.025Z,21.97
2022-11-13T12:19:29.379Z,23.73
2022-11-13T12:22:39.587Z,21.37
2022-11-13T12:25:28.001Z,19.03
2022-11-13T12:28:25.564Z,21.70
2022-11-13T12:31:10.827Z,20.97
2022-11-13T12:34:02.722Z,20.33
2022-11-13T12:36:48.955Z,19.57
2022-11-13T12:39:45.879Z,22.30
2022-11-13T12:42:36.530Z,19.67
2022-11-13T12:45:21.918Z,21.13
2022-11-13T12:48:16.227Z,19.30
2022-11-13T12:51:05.878Z,20.10
2022-11-13T12:53:53.125Z,19.10
2022-11-13T12:56:38.712Z,19.57
2022-11-13T12:59:31.001Z,18.67
2022-11-13T13:02:35.796Z,17.83
2022-11-13T13:05:39.005Z,19.20
2022-11-13T13:08:45.508Z,20.60
2022-11-13T13:11:51.185Z,19.57
2022-11-13T13:14:54.996Z,18.97
2022-11-13T13:17:41.254Z,20.13
2022-11-13T13:20:37.415Z,20.73
2022-11-13T13:23:30.376Z,19.90
2022-11-13T13:26:29.123Z,19.60
2022-11-13T13:29:17.785Z,18.40
2022-11-13T13:32:21.489Z,20.27
2022-11-13T13:35:36.493Z,19.63
2022-11-13T13:38:32.120Z,18.97
2022-11-13T13:41:36.116Z,19.77
2022-11-13T13:44:21.234Z,19.87
2022-11-13T13:47:11.893Z,19.17
2022-11-13T13:49:57.777Z,20.20
2022-11-13T13:52:44.347Z,19.67
2022-11-13T13:55:34.127Z,19.63
2022-11-13T13:58:21.187Z,19.17
2022-11-13T14:01:22.979Z,18.97
2022-11-13T14:04:11.320Z,19.00
2022-11-13T14:07:00.642Z,18.50
2022-11-13T14:09:46.119Z,19.13
2022-11-13T14:12:31.672Z,18.80
2022-11-13T14:15:17.296Z,18.77
2022-11-13T14:18:07.423Z,18.00
2022-11-13T14:20:54.348Z,17.13
2022-11-13T14:23:44.250Z,17.63
2022-11-13T14:26:30.059Z,18.13
2022-11-13T14:29:23.882Z,18.17
2022-11-13T14:32:14.507Z,19.07
2022-11-13T14:35:01.323Z,17.70
2022-11-13T14:37:47.390Z,17.97
2022-11-13T14:40:34.076Z,18.63
2022-11-13T14:43:24.169Z,19.17
2022-11-13T14:46:26.729Z,18.27
2022-11-13T14:49:15.221Z,19.03
2022-11-13T14:52:01.506Z,24.67
2022-11-13T14:55:13.509Z,22.40
2022-11-13T14:57:52.839Z,20.57
2022-11-13T15:00:38.695Z,19.77
2022-11-13T15:03:24.546Z,21.53
2022-11-13T15:06:14.551Z,20.60
2022-11-13T15:09:00.903Z,22.60
2022-11-13T15:11:46.366Z,21.50
2022-11-13T15:14:33.203Z,21.17
2022-11-13T15:17:20.456Z,22.47
2022-11-13T15:20:09.655Z,24.53
2022-11-13T15:22:56.581Z,30.27
2022-11-13T15:25:42.735Z,35.93
2022-11-13T15:28:28.117Z,39.07
2022-11-13T15:31:25.607Z,45.60
2022-11-13T15:34:12.177Z,49.10
2022-11-13T15:36:57.522Z,54.63
2022-11-13T15:39:43.257Z,53.13
2022-11-13T15:42:35.680Z,71.15
2022-11-13T15:45:21.441Z,63.00
2022-11-13T15:48:09.702Z,41.20
2022-11-13T15:50:55.217Z,35.10
2022-11-13T15:53:40.661Z,27.30
2022-11-13T15:56:26.482Z,25.57
2022-11-13T15:59:13.549Z,22.97
2022-11-13T16:01:59.270Z,23.00
2022-11-13T16:04:56.102Z,24.13
2022-11-13T16:07:42.795Z,23.77
2022-11-13T16:10:28.289Z,28.40
2022-11-13T16:13:13.840Z,26.57
2022-11-13T16:16:00.141Z,27.40
2022-11-13T16:18:46.221Z,26.30
2022-11-13T16:21:32.553Z,23.93
2022-11-13T16:24:22.737Z,24.77
2022-11-13T16:27:12.727Z,26.33
2022-11-13T16:30:02.271Z,26.93
2022-11-13T16:32:50.912Z,26.03
2022-11-13T16:35:36.563Z,27.40
2022-11-13T16:38:22.231Z,27.57
2022-11-13T16:41:10.101Z,27.50
2022-11-13T16:43:55.516Z,27.90
2022-11-13T16:46:44.891Z,28.93
2022-11-13T16:49:30.181Z,28.63
2022-11-13T16:52:16.107Z,28.63
2022-11-13T16:55:06.297Z,29.03
2022-11-13T16:57:51.964Z,29.17
2022-11-13T17:00:37.372Z,31.30
2022-11-13T17:03:22.719Z,28.90
2022-11-13T17:06:19.346Z,30.77
2022-11-13T17:09:05.172Z,30.80
2022-11-13T17:11:50.415Z,28.90
2022-11-13T17:14:35.854Z,28.70
2022-11-13T17:17:21.138Z,30.17
2022-11-13T17:20:07.070Z,31.30
2022-11-13T17:22:52.805Z,31.53
2022-11-13T17:25:38.306Z,32.17
2022-11-13T17:28:24.013Z,30.27
2022-11-13T17:31:12.105Z,31.27
2022-11-13T17:33:57.684Z,31.63
2022-11-13T17:36:43.319Z,33.87
2022-11-13T17:39:28.596Z,30.97
2022-11-13T17:42:13.942Z,30.87
2022-11-13T17:44:59.177Z,32.63
2022-11-13T17:47:44.566Z,31.40
2022-11-13T17:50:29.962Z,32.63
2022-11-13T17:53:15.462Z,32.33
2022-11-13T17:56:02.302Z,32.33
2022-11-13T17:58:47.872Z,34.70
2022-11-13T18:01:33.971Z,34.57
2022-11-13T18:04:19.930Z,34.53
2022-11-13T18:07:06.216Z,33.50
2022-11-13T18:09:52.631Z,35.53
2022-11-13T18:12:38.956Z,35.20
2022-11-13T18:15:25.623Z,33.67
2022-11-13T18:18:11.982Z,35.27
2022-11-13T18:20:57.872Z,35.07
2022-11-13T18:23:43.535Z,37.83
2022-11-13T18:26:30.466Z,51.07
2022-11-13T18:29:15.838Z,52.73
2022-11-13T18:32:01.496Z,47.90
2022-11-13T18:34:47.420Z,54.63
2022-11-13T18:37:33.528Z,45.20
2022-11-13T18:40:19.295Z,40.20
2022-11-13T18:43:04.883Z,40.33
2022-11-13T18:46:00.577Z,42.43
2022-11-13T18:48:46.381Z,40.53
2022-11-13T18:51:35.723Z,40.00
2022-11-13T18:54:21.323Z,40.43
2022-11-13T18:57:06.890Z,42.10
2022-11-13T18:59:53.156Z,41.03
2022-11-13T19:02:39.461Z,41.03
2022-11-13T19:05:24.983Z,40.37
2022-11-13T19:08:11.274Z,41.43
2022-11-13T19:11:03.216Z,40.23
2022-11-13T19:13:49.943Z,39.47
2022-11-13T19:16:37.781Z,39.37
2022-11-13T19:19:23.899Z,37.50
2022-11-13T19:22:09.438Z,38.60
2022-11-13T19:24:55.384Z,39.63
2022-11-13T19:27:41.365Z,37.57
2022-11-13T19:30:28.130Z,39.63
2022-11-13T19:33:14.984Z,37.50
2022-11-13T19:36:05.876Z,39.43
2022-11-13T19:38:52.674Z,40.13
2022-11-13T19:41:38.309Z,40.33
2022-11-13T19:44:23.949Z,42.03
2022-11-13T19:47:09.728Z,38.13
2022-11-13T19:49:55.099Z,35.40
2022-11-13T19:52:40.664Z,36.63
2022-11-13T19:55:26.148Z,36.37
2022-11-13T19:58:11.564Z,37.33
2022-11-13T20:00:57.579Z,37.17
2022-11-13T20:03:44.139Z,37.93
2022-11-13T20:06:31.850Z,36.97
2022-11-13T20:09:17.941Z,36.83
2022-11-13T20:12:03.981Z,40.10
2022-11-13T20:14:50.387Z,44.13
2022-11-13T20:17:36.165Z,41.43
2022-11-13T20:20:22.445Z,37.50
2022-11-13T20:23:07.959Z,40.33
2022-11-13T20:26:04.020Z,37.33
2022-11-13T20:28:49.698Z,36.43
2022-11-13T20:31:35.706Z,34.87
2022-11-13T20:34:21.131Z,34.37
2022-11-13T20:37:06.380Z,32.73
2022-11-13T20:39:52.729Z,34.33
2022-11-13T20:42:38.879Z,34.07
2022-11-13T20:45:24.929Z,35.23
2022-11-13T20:48:11.160Z,33.03
2022-11-13T20:50:56.972Z,35.30
2022-11-13T20:53:43.344Z,33.57
2022-11-13T20:56:29.646Z,29.83
2022-11-13T20:59:15.485Z,32.77
2022-11-13T21:02:01.300Z,31.60
2022-11-13T21:04:46.865Z,33.00
2022-11-13T21:07:33.096Z,32.87
2022-11-13T21:10:18.932Z,32.77
2022-11-13T21:13:05.197Z,31.50
2022-11-13T21:15:50.589Z,29.93
2022-11-13T21:18:37.207Z,31.37
2022-11-13T21:21:23.577Z,33.57
2022-11-13T21:24:09.170Z,31.57
2022-11-13T21:26:55.288Z,30.23
2022-11-13T21:29:41.902Z,29.97
2022-11-13T21:32:27.907Z,32.97
2022-11-13T21:35:14.651Z,31.67
2022-11-13T21:38:04.898Z,30.47
2022-11-13T21:41:18.543Z,27.57
2022-11-13T21:44:05.420Z,29.40
2022-11-13T21:46:50.667Z,29.97
2022-11-13T21:49:36.039Z,29.70
2022-11-13T21:52:21.492Z,29.57
2022-11-13T21:55:07.174Z,27.33
2022-11-13T21:57:52.362Z,28.37
2022-11-13T22:00:37.888Z,28.40
2022-11-13T22:03:23.378Z,28.23
2022-11-13T22:06:15.780Z,28.20
2022-11-13T22:09:02.524Z,26.73
2022-11-13T22:11:48.344Z,25.97
2022-11-13T22:14:33.880Z,25.33
2022-11-13T22:17:19.141Z,26.07
2022-11-13T22:20:05.027Z,26.13
2022-11-13T22:22:50.258Z,25.73
2022-11-13T22:25:35.551Z,27.73
2022-11-13T22:28:21.182Z,26.70
2022-11-13T22:31:07.215Z,24.47
2022-11-13T22:33:55.204Z,25.50
2022-11-13T22:36:40.755Z,27.67
2022-11-13T22:39:26.246Z,25.97
2022-11-13T22:42:11.878Z,23.33
2022-11-13T22:44:57.136Z,24.73
2022-11-13T22:47:42.553Z,24.07
2022-11-13T22:50:28.056Z,24.17
2022-11-13T22:53:14.948Z,22.93
2022-11-13T22:56:20.874Z,24.10
2022-11-13T22:59:08.106Z,24.07
2022-11-13T23:01:53.441Z,19.47
2022-11-13T23:04:38.775Z,20.70
2022-11-13T23:07:24.072Z,22.77
2022-11-13T23:10:09.802Z,22.50
2022-11-13T23:12:55.542Z,20.20
2022-11-13T23:15:40.845Z,21.73
2022-11-13T23:18:26.594Z,22.67
2022-11-13T23:21:12.772Z,22.53
2022-11-13T23:23:58.599Z,22.60
2022-11-13T23:26:44.338Z,24.23
2022-11-13T23:29:29.797Z,20.03
2022-11-13T23:32:15.087Z,20.07
2022-11-13T23:35:00.768Z,20.30
2022-11-13T23:37:46.852Z,20.60
2022-11-13T23:40:32.455Z,20.67
2022-11-13T23:43:17.929Z,20.40
2022-11-13T23:46:03.594Z,20.17
2022-11-13T23:48:48.870Z,19.23
2022-11-13T23:51:34.370Z,17.93
2022-11-13T23:54:20.039Z,17.33
2022-11-13T23:57:05.609Z,18.10
2022-11-13T23:59:51.279Z,19.07
